Time;durP1;ratioP1;P1;durP2;ratioP2;P2;SDS_P1;SDS_P2;PMS_P1;PMS_P2;Temp;Humidity;BMP_temperature;BMP_pressure;BME280_temperature;BME280_humidity;BME280_pressure;Samples;Min_cycle;Max_cycle;Signal;HPM_P1;HPM_P2
2021/12/02 05:05:39;;;;;;;9.27;5.70;;;;;;;9.43;70.27;99034.22;5605959;31;84193;-58
2021/12/02 05:08:41;;;;;;;8.80;5.12;;;;;;;9.43;70.27;99034.22;5583901;32;34173;-58
2021/12/02 05:11:43;;;;;;;8.48;5.22;;;;;;;8.93;76.25;99047.69;5583791;31;34663;-58
2021/12/02 05:14:46;;;;;;;8.68;5.25;;;;;;;8.91;73.83;99041.88;5583780;31;33720;-58
2021/12/02 05:17:48;;;;;;;10.50;5.55;;;;;;;8.99;72.61;99035.78;5569844;32;33671;-57
2021/12/02 05:20:51;;;;;;;7.60;5.12;;;;;;;9.05;69.50;99060.53;5564182;32;33579;-58
2021/12/02 05:23:54;;;;;;;10.68;5.50;;;;;;;9.14;69.25;99072.88;5564068;32;33507;-58
2021/12/02 05:26:56;;;;;;;7.53;4.78;;;;;;;9.29;69.63;99057.56;5564199;32;33655;-58
2021/12/02 05:29:58;;;;;;;9.85;5.60;;;;;;;9.15;72.03;99052.28;5564130;32;34258;-58
2021/12/02 05:33:01;;;;;;;9.27;5.60;;;;;;;9.04;71.33;99050.91;5563145;32;33619;-57
2021/12/02 05:36:03;;;;;;;9.30;5.53;;;;;;;9.04;72.82;99048.25;5563780;32;33678;-58
2021/12/02 05:39:06;;;;;;;6.72;4.70;;;;;;;8.98;72.30;99039.56;5564026;32;33505;-58
2021/12/02 05:42:08;;;;;;;8.77;4.47;;;;;;;9.07;73.18;99044.97;5569418;32;33516;-58
2021/12/02 05:45:10;;;;;;;6.12;3.97;;;;;;;9.36;77.19;99039.22;5582987;31;33657;-58
2021/12/02 05:48:12;;;;;;;9.55;4.72;;;;;;;9.35;71.48;99030.41;5582637;31;34193;-58
2021/12/02 05:51:16;;;;;;;7.07;4.22;;;;;;;9.48;74.07;99036.00;5582243;32;33617;-58
2021/12/02 05:54:18;;;;;;;6.75;4.32;;;;;;;9.59;79.43;99035.41;5581912;31;34265;-58
2021/12/02 05:57:20;;;;;;;8.80;4.18;;;;;;;9.72;75.91;99035.66;5563328;32;33885;-58
2021/12/02 06:00:22;;;;;;;8.77;4.45;;;;;;;9.51;70.83;99027.34;5563728;32;34297;-58
2021/12/02 06:03:25;;;;;;;8.65;4.60;;;;;;;9.49;70.82;99027.66;5568643;32;33548;-58
2021/12/02 06:06:31;;;;;;;8.65;4.60;;;;;;;9.39;70.49;99028.69;5580042;32;33738;-57
2021/12/02 06:09:34;;;;;;;7.32;4.62;;;;;;;9.22;72.09;99038.50;5581416;32;33588;-57
2021/12/02 06:12:36;;;;;;;7.05;4.12;;;;;;;9.32;70.71;99047.06;5577120;32;33712;-57
2021/12/02 06:15:38;;;;;;;9.98;3.90;;;;;;;9.31;79.31;99044.69;5570478;32;33265;-57
2021/12/02 06:18:40;;;;;;;7.28;4.20;;;;;;;9.25;77.30;99045.91;5563000;32;34238;-58
2021/12/02 06:21:43;;;;;;;9.95;5.55;;;;;;;9.30;73.34;99043.88;5557132;32;33628;-57
2021/12/02 06:24:54;;;;;;;7.10;4.45;;;;;;;9.33;71.20;99040.59;5558135;32;35125;-57
2021/12/02 06:27:57;;;;;;;12.52;5.45;;;;;;;9.46;70.11;99038.16;5562275;32;33144;-57
2021/12/02 06:31:02;;;;;;;10.48;6.28;;;;;;;9.39;74.53;99041.28;5559996;32;33684;-57
2021/12/02 06:34:06;;;;;;;12.77;7.18;;;;;;;9.27;70.60;99041.84;5562740;32;33519;-58
2021/12/02 06:37:09;;;;;;;13.05;7.50;;;;;;;9.25;79.32;99044.03;5567893;32;33624;-58
2021/12/02 06:40:12;;;;;;;14.68;8.13;;;;;;;9.26;71.18;99048.25;5564012;32;33699;-58
2021/12/02 06:43:15;;;;;;;14.98;8.73;;;;;;;9.25;70.22;99038.66;5554568;32;33345;-58
2021/12/02 06:46:18;;;;;;;12.35;8.13;;;;;;;9.28;69.69;99040.75;5569316;32;33867;-58
2021/12/02 06:49:20;;;;;;;14.65;9.10;;;;;;;9.31;69.80;99042.03;5569107;32;34755;-58
2021/12/02 06:52:26;;;;;;;12.43;8.32;;;;;;;9.48;68.62;99041.34;5569719;32;34160;-58
2021/12/02 06:55:30;;;;;;;16.05;8.75;;;;;;;9.25;70.05;99048.59;5569200;32;33715;-58
2021/12/02 06:58:33;;;;;;;14.68;8.80;;;;;;;9.26;70.97;99042.13;5568869;32;33904;-58
2021/12/02 07:01:35;;;;;;;18.10;8.35;;;;;;;9.25;70.81;99057.38;5569628;32;33541;-57
2021/12/02 07:04:38;;;;;;;17.35;9.10;;;;;;;9.29;68.62;99062.91;5568626;32;33938;-57
2021/12/02 07:07:40;;;;;;;19.15;9.07;;;;;;;9.24;68.41;99063.84;5569031;32;33712;-58
2021/12/02 07:10:43;;;;;;;19.85;9.23;;;;;;;9.24;71.40;99063.84;5569417;32;33629;-57
2021/12/02 07:13:48;;;;;;;16.55;9.48;;;;;;;9.30;69.66;99072.50;5568844;32;33724;-58
2021/12/02 07:16:51;;;;;;;16.08;10.05;;;;;;;9.25;70.11;99081.47;5566830;32;33603;-58
2021/12/02 07:19:54;;;;;;;16.08;10.10;;;;;;;9.11;71.14;99078.03;5561607;32;34332;-58
2021/12/02 07:22:57;;;;;;;13.73;9.10;;;;;;;9.23;70.44;99083.62;5568596;32;34324;-58
2021/12/02 07:26:00;;;;;;;20.25;10.30;;;;;;;9.23;70.62;99097.00;5568421;32;33732;-57
2021/12/02 07:29:03;;;;;;;14.85;9.57;;;;;;;9.20;70.79;99092.25;5568243;32;33125;-57
2021/12/02 07:32:06;;;;;;;14.57;9.55;;;;;;;9.35;70.00;99101.81;5568913;32;33695;-58
2021/12/02 07:35:14;;;;;;;17.85;10.52;;;;;;;9.29;72.02;99084.31;5569290;32;33653;-58
2021/12/02 07:38:18;;;;;;;15.27;9.90;;;;;;;9.21;72.60;99083.16;5569296;32;33717;-58
2021/12/02 07:41:21;;;;;;;17.30;10.20;;;;;;;9.25;72.44;99086.81;5569402;32;34362;-58
2021/12/02 07:44:25;;;;;;;18.27;10.35;;;;;;;9.28;73.63;99083.53;5568680;32;33690;-57
2021/12/02 07:47:28;;;;;;;18.12;10.00;;;;;;;9.03;74.60;99090.22;5568951;32;33639;-57
2021/12/02 07:50:32;;;;;;;18.08;9.13;;;;;;;8.98;77.26;99089.56;5568584;32;33831;-57
2021/12/02 07:53:35;;;;;;;16.73;10.75;;;;;;;9.03;76.19;99095.56;5569152;32;33700;-58
2021/12/02 07:56:38;;;;;;;15.57;9.63;;;;;;;9.01;77.50;99096.97;5567869;32;33185;-58
2021/12/02 07:59:41;;;;;;;14.25;9.57;;;;;;;8.97;79.41;99091.41;5568471;32;33822;-58
2021/12/02 08:02:46;;;;;;;16.90;9.43;;;;;;;8.98;78.38;99109.06;5568110;32;33735;-57
2021/12/02 08:05:48;;;;;;;17.23;9.40;;;;;;;9.00;77.52;99108.75;5563441;32;33813;-58
2021/12/02 08:08:50;;;;;;;15.98;9.02;;;;;;;9.00;77.74;99109.53;5568248;32;34183;-58
2021/12/02 08:11:54;;;;;;;17.92;9.13;;;;;;;9.07;76.88;99104.59;5568879;32;34381;-58
2021/12/02 08:14:57;;;;;;;14.23;9.75;;;;;;;8.99;78.88;99109.84;5568455;32;33667;-57
2021/12/02 08:17:59;;;;;;;14.65;9.98;;;;;;;9.27;76.90;99106.03;5567209;32;34381;-57
2021/12/02 08:21:02;;;;;;;15.77;10.73;;;;;;;9.20;76.46;99104.84;5566749;32;33847;-57
2021/12/02 08:24:05;;;;;;;19.40;10.90;;;;;;;9.06;79.88;99112.91;5564803;32;34380;-58
2021/12/02 08:27:07;;;;;;;18.35;10.70;;;;;;;8.86;79.15;99111.44;5558267;32;34209;-57
2021/12/02 08:30:13;;;;;;;15.85;10.13;;;;;;;8.85;79.21;99110.66;5563062;32;34380;-58
2021/12/02 08:33:18;;;;;;;19.67;11.25;;;;;;;9.07;78.26;99122.50;5549417;32;33633;-57
2021/12/02 08:36:25;;;;;;;32.35;15.00;;;;;;;9.12;77.88;99130.41;5565070;32;33746;-58
2021/12/02 08:39:29;;;;;;;26.60;13.73;;;;;;;9.09;82.60;99128.34;5567292;32;33405;-57
2021/12/02 08:42:32;;;;;;;24.95;14.10;;;;;;;9.14;79.25;99133.59;5568048;32;33726;-57
2021/12/02 08:45:36;;;;;;;24.90;14.30;;;;;;;9.20;78.67;99136.91;5568369;32;34354;-58
2021/12/02 08:48:38;;;;;;;20.75;12.43;;;;;;;9.03;79.97;99130.31;5568543;32;33601;-57
2021/12/02 08:51:41;;;;;;;19.65;11.90;;;;;;;8.94;81.31;99134.81;5567652;32;33705;-57
2021/12/02 08:54:43;;;;;;;18.80;11.45;;;;;;;9.01;79.66;99139.75;5559856;32;33252;-57
2021/12/02 08:57:47;;;;;;;16.85;10.48;;;;;;;9.16;79.45;99131.38;5558781;32;33544;-58
2021/12/02 09:00:49;;;;;;;17.75;11.02;;;;;;;9.24;79.24;99135.22;5567347;32;33702;-58
2021/12/02 09:03:52;;;;;;;17.27;11.07;;;;;;;9.18;79.04;99131.87;5564691;32;33643;-57
2021/12/02 09:06:57;;;;;;;16.80;9.88;;;;;;;9.06;79.71;99131.59;5554916;32;33568;-57
2021/12/02 09:09:59;;;;;;;16.80;10.07;;;;;;;9.09;79.34;99123.00;5566810;32;33578;-58
2021/12/02 09:13:07;;;;;;;19.85;10.82;;;;;;;9.10;79.27;99119.22;5568008;32;34385;-57
2021/12/02 09:16:11;;;;;;;18.60;10.48;;;;;;;9.17;77.76;99115.06;5567338;32;34285;-57
2021/12/02 09:19:14;;;;;;;15.32;10.73;;;;;;;9.17;78.22;99114.25;5566598;32;33639;-58
2021/12/02 09:22:17;;;;;;;18.83;11.20;;;;;;;9.21;79.30;99107.22;5565151;32;33722;-57
2021/12/02 09:25:20;;;;;;;15.48;9.98;;;;;;;9.21;79.75;99093.84;5567536;32;33628;-58
2021/12/02 09:28:22;;;;;;;14.73;10.02;;;;;;;9.25;79.58;99094.81;5566957;32;33786;-57
2021/12/02 09:31:25;;;;;;;15.00;10.93;;;;;;;9.28;82.42;99091.53;5567792;32;33348;-58
2021/12/02 09:34:28;;;;;;;17.20;10.63;;;;;;;9.32;80.32;99087.16;5563565;32;33569;-58
2021/12/02 09:37:30;;;;;;;17.95;11.77;;;;;;;9.46;79.71;99081.75;5558716;32;32339;-58
2021/12/02 09:40:35;;;;;;;16.50;11.65;;;;;;;9.35;81.30;99081.22;5566472;32;33287;-57
2021/12/02 09:43:38;;;;;;;17.90;11.43;;;;;;;9.29;81.70;99082.41;5566007;32;33719;-57
2021/12/02 09:46:42;;;;;;;24.17;10.93;;;;;;;9.36;81.88;99080.13;5567028;32;34238;-57
2021/12/02 09:49:45;;;;;;;17.67;11.40;;;;;;;9.51;87.75;99075.50;5566945;32;32141;-58
2021/12/02 09:52:47;;;;;;;19.77;12.45;;;;;;;9.60;81.81;99070.97;5568888;32;34484;-58
2021/12/02 09:59:23;;;;;;;16.87;11.25;;;;;;;9.71;87.09;99069.66;5561236;32;33610;-57
2021/12/02 10:02:26;;;;;;;18.87;11.05;;;;;;;9.63;83.00;99059.69;5561288;32;33705;-57
2021/12/02 10:05:34;;;;;;;15.13;10.18;;;;;;;9.71;80.80;99058.16;5566404;32;33239;-57
2021/12/02 10:08:53;;;;;;;17.80;11.20;;;;;;;9.73;80.64;99056.75;5569948;32;33149;-57
2021/12/02 10:12:03;;;;;;;18.60;12.60;;;;;;;9.63;81.96;99048.97;5568803;32;33744;-58
2021/12/02 10:15:14;;;;;;;20.30;12.77;;;;;;;9.73;83.19;99043.34;5552764;32;33748;-58
2021/12/02 10:18:17;;;;;;;17.00;12.43;;;;;;;9.68;83.29;99045.41;5559791;31;33605;-57
2021/12/02 10:21:25;;;;;;;20.08;12.27;;;;;;;9.65;81.95;99033.41;5568213;32;32284;-58
2021/12/02 10:24:41;;;;;;;19.73;13.15;;;;;;;9.74;81.46;99036.94;5566417;32;33732;-58
2021/12/02 10:28:10;;;;;;;19.23;13.57;;;;;;;9.83;80.80;99036.97;5562141;32;33968;-58
2021/12/02 10:31:19;;;;;;;18.92;13.75;;;;;;;9.75;81.40;99030.47;5566669;32;33766;-58
2021/12/02 10:34:22;;;;;;;16.33;10.80;;;;;;;9.84;80.83;99023.28;5558529;32;33666;-57
2021/12/02 10:37:31;;;;;;;17.27;9.00;;;;;;;9.93;88.83;99028.66;5568880;32;33739;-58
2021/12/02 10:40:36;;;;;;;10.88;7.22;;;;;;;10.03;81.14;99025.72;5569636;32;33327;-58
2021/12/02 10:44:04;;;;;;;12.10;8.60;;;;;;;10.15;80.95;99022.44;5568614;32;33612;-58
2021/12/02 10:47:10;;;;;;;13.73;7.65;;;;;;;10.10;80.80;99014.56;5560034;32;33607;-58
2021/12/02 10:50:13;;;;;;;11.57;7.47;;;;;;;10.30;87.52;99027.44;5569342;32;34419;-57
2021/12/02 10:53:16;;;;;;;11.35;7.43;;;;;;;10.32;83.71;99019.84;5569271;32;33676;-57
2021/12/02 10:56:34;;;;;;;13.60;7.12;;;;;;;10.48;89.10;99020.22;5568537;32;34385;-57
2021/12/02 10:59:44;;;;;;;8.05;6.05;;;;;;;10.69;81.06;99006.97;5568013;32;33668;-58
2021/12/02 11:02:49;;;;;;;9.45;6.82;;;;;;;10.52;77.23;99004.28;5568527;32;34297;-57
2021/12/02 11:05:52;;;;;;;12.88;8.75;;;;;;;10.44;90.80;98997.81;5550546;32;33658;-57
2021/12/02 11:08:59;;;;;;;17.27;9.75;;;;;;;10.87;83.15;98988.25;5560558;32;34309;-58
2021/12/02 11:12:16;;;;;;;10.45;6.40;;;;;;;10.55;80.36;98985.69;5564886;32;33666;-58
2021/12/02 11:15:21;;;;;;;8.68;5.90;;;;;;;10.48;78.59;98990.72;5568749;32;34418;-57
2021/12/02 11:18:23;;;;;;;10.18;5.90;;;;;;;10.37;78.40;98975.28;5568702;31;33664;-57
2021/12/02 11:21:27;;;;;;;10.05;5.10;;;;;;;10.37;82.71;98984.09;5567572;32;34414;-58
2021/12/02 11:24:32;;;;;;;7.03;4.15;;;;;;;10.49;86.65;98975.44;5568431;32;34408;-57
2021/12/02 11:27:44;;;;;;;6.95;4.43;;;;;;;10.65;78.99;98970.41;5568834;32;33857;-57
2021/12/02 11:30:46;;;;;;;5.45;3.20;;;;;;;10.27;77.79;98971.78;5552751;32;34287;-57
2021/12/02 11:34:10;;;;;;;6.12;3.28;;;;;;;10.18;76.39;98970.94;5559871;32;33751;-57
2021/12/02 11:37:12;;;;;;;4.70;2.97;;;;;;;10.03;77.12;98966.03;5566245;32;34348;-57
2021/12/02 11:40:18;;;;;;;5.37;2.92;;;;;;;9.98;77.95;98968.84;5562680;32;34582;-58
2021/12/02 11:43:32;;;;;;;3.85;2.33;;;;;;;10.16;80.29;98961.66;5549719;32;33684;-57
2021/12/02 11:46:34;;;;;;;4.85;2.60;;;;;;;10.06;77.29;98976.09;5567028;32;33236;-57
2021/12/02 11:49:37;;;;;;;4.53;2.37;;;;;;;10.32;80.01;98955.56;5566175;32;34974;-58
2021/12/02 11:52:41;;;;;;;4.47;2.60;;;;;;;10.13;77.25;98952.34;5568570;32;33619;-57
2021/12/02 11:55:43;;;;;;;3.72;2.10;;;;;;;10.16;79.79;98953.62;5568321;32;33791;-57
2021/12/02 11:58:47;;;;;;;2.78;1.87;;;;;;;10.09;75.61;98948.72;5567095;32;33747;-57
2021/12/02 12:01:57;;;;;;;3.35;2.15;;;;;;;10.11;84.14;98946.53;5561375;32;33725;-58
2021/12/02 12:05:04;;;;;;;3.17;1.85;;;;;;;10.29;80.33;98937.44;5566665;32;34406;-57
2021/12/02 12:08:06;;;;;;;2.95;1.65;;;;;;;10.19;73.88;98944.97;5559375;32;33740;-58
2021/12/02 12:11:33;;;;;;;3.05;1.50;;;;;;;10.11;74.94;98943.84;5559457;32;33603;-57
2021/12/02 12:14:41;;;;;;;4.55;1.52;;;;;;;10.06;74.22;98952.00;5560369;32;34308;-57
2021/12/02 12:17:44;;;;;;;3.53;1.23;;;;;;;10.08;76.89;98947.16;5560106;32;33809;-58
2021/12/02 12:20:50;;;;;;;1.83;1.30;;;;;;;9.84;74.61;98934.97;5568579;32;33789;-57
2021/12/02 12:23:59;;;;;;;1.95;1.42;;;;;;;9.88;76.18;98941.25;5562403;32;33752;-58
2021/12/02 12:27:11;;;;;;;2.40;1.10;;;;;;;9.94;77.30;98930.44;5552335;32;33735;-57
2021/12/02 12:30:14;;;;;;;2.92;1.08;;;;;;;9.81;74.75;98932.13;5547494;32;33794;-58
2021/12/02 12:33:38;;;;;;;2.62;1.17;;;;;;;9.88;78.48;98929.78;5561965;32;34367;-57
2021/12/02 12:36:46;;;;;;;2.22;1.00;;;;;;;9.64;75.10;98930.94;5567328;32;34097;-57
2021/12/02 12:40:06;;;;;;;1.58;1.10;;;;;;;9.67;76.64;98931.41;5565844;32;33771;-57
2021/12/02 12:43:09;;;;;;;2.55;1.20;;;;;;;9.64;74.84;98930.94;5562078;32;33737;-57
2021/12/02 12:46:24;;;;;;;2.33;1.27;;;;;;;9.57;75.73;98927.94;5558196;32;33679;-57
2021/12/02 12:49:26;;;;;;;0.80;0.80;;;;;;;9.79;80.35;98932.41;5567994;32;33682;-57
2021/12/02 12:52:29;;;;;;;4.60;1.10;;;;;;;9.77;75.92;98926.59;5566192;32;34165;-57
2021/12/02 12:55:59;;;;;;;1.95;0.98;;;;;;;9.63;78.38;98931.25;5559440;32;33268;-57
2021/12/02 12:59:05;;;;;;;3.47;1.20;;;;;;;9.75;76.77;98931.47;5561192;32;34246;-58
2021/12/02 13:02:08;;;;;;;1.37;0.73;;;;;;;9.69;77.80;98939.94;5560741;32;33822;-57
2021/12/02 13:05:11;;;;;;;2.15;1.20;;;;;;;9.70;75.93;98934.28;5564859;32;34098;-57
2021/12/02 13:08:21;;;;;;;1.87;1.42;;;;;;;9.76;75.95;98930.34;5567711;32;33699;-58
2021/12/02 13:11:29;;;;;;;2.20;0.90;;;;;;;9.91;85.01;98926.47;5567601;32;33621;-58
2021/12/02 13:14:33;;;;;;;3.03;1.42;;;;;;;10.05;80.02;98912.97;5566892;32;33678;-57
2021/12/02 13:17:45;;;;;;;1.70;1.08;;;;;;;10.07;81.88;98913.44;5567689;32;33673;-58
2021/12/02 13:20:48;;;;;;;2.08;1.10;;;;;;;9.94;75.78;98911.69;5557951;32;34278;-58
2021/12/02 13:24:09;;;;;;;2.85;1.10;;;;;;;9.95;75.56;98910.56;5557253;32;34573;-57
2021/12/02 13:27:12;;;;;;;2.47;1.12;;;;;;;9.88;74.73;98917.16;5561511;32;33765;-58
2021/12/02 13:30:14;;;;;;;2.42;1.58;;;;;;;9.69;76.19;98924.66;5549960;32;33607;-58
2021/12/02 13:33:17;;;;;;;2.53;1.37;;;;;;;9.69;77.27;98921.97;5565707;32;33699;-58
2021/12/02 13:36:42;;;;;;;3.05;1.70;;;;;;;9.78;81.60;98933.50;5562778;32;33454;-57
2021/12/02 13:39:45;;;;;;;6.07;1.33;;;;;;;9.76;82.08;98934.91;5568195;32;33709;-58
2021/12/02 13:42:58;;;;;;;2.40;1.45;;;;;;;9.60;78.21;98937.22;5569043;32;34080;-58
2021/12/02 13:46:11;;;;;;;4.03;1.75;;;;;;;9.80;77.42;98931.34;5566900;32;33775;-58
2021/12/02 13:49:19;;;;;;;6.93;2.05;;;;;;;9.85;81.16;98931.16;5568744;32;33362;-58
2021/12/02 13:55:46;;;;;;;5.00;2.00;;;;;;;9.69;79.21;98932.69;5568435;32;33635;-58
2021/12/02 13:58:49;;;;;;;3.40;2.10;;;;;;;9.52;86.26;98929.94;5569925;32;33629;-58
2021/12/02 14:01:57;;;;;;;2.90;1.60;;;;;;;9.93;88.34;98926.16;5569406;32;34333;-58
2021/12/02 14:04:59;;;;;;;3.05;1.40;;;;;;;10.47;85.29;98927.53;5557705;32;34390;-58
2021/12/02 14:08:10;;;;;;;3.87;1.40;;;;;;;10.73;77.10;98922.19;5556338;32;33659;-57
2021/12/02 14:11:14;;;;;;;3.90;2.10;;;;;;;10.15;76.06;98926.06;5562961;32;32327;-58
2021/12/02 14:14:18;;;;;;;4.03;1.92;;;;;;;10.08;80.58;98923.84;5566451;32;33616;-57
2021/12/02 14:17:57;;;;;;;1.92;1.40;;;;;;;10.10;86.69;98923.53;5565556;32;34219;-58
2021/12/02 14:21:05;;;;;;;3.00;1.50;;;;;;;10.06;82.53;98906.50;5568641;32;35091;-58
2021/12/02 14:24:07;;;;;;;4.50;1.73;;;;;;;10.19;76.27;98905.56;5560459;32;33799;-58
2021/12/02 14:27:16;;;;;;;3.78;1.40;;;;;;;10.03;77.97;98901.75;5558872;32;33847;-58
2021/12/02 14:30:19;;;;;;;2.47;1.42;;;;;;;9.98;74.81;98901.94;5557125;32;33691;-58
2021/12/02 14:33:33;;;;;;;4.20;1.37;;;;;;;9.74;75.92;98921.06;5569542;32;34137;-57
2021/12/02 14:36:41;;;;;;;2.87;1.65;;;;;;;9.77;77.72;98933.84;5560328;32;33678;-57
2021/12/02 14:39:43;;;;;;;3.67;1.92;;;;;;;9.78;78.21;98944.22;5559197;32;34257;-58
2021/12/02 14:42:45;;;;;;;2.97;1.67;;;;;;;9.94;76.28;98946.47;5558116;32;34370;-58
2021/12/02 14:45:51;;;;;;;6.07;1.98;;;;;;;9.89;77.42;98953.53;5555326;32;34274;-58
2021/12/02 14:49:02;;;;;;;7.47;1.80;;;;;;;9.88;78.28;98956.53;5562600;32;33632;-58
2021/12/02 14:52:12;;;;;;;5.20;2.10;;;;;;;9.82;80.07;98955.09;5561329;32;33624;-58
2021/12/02 14:55:21;;;;;;;3.95;1.70;;;;;;;9.83;80.27;98967.38;5568766;32;34273;-57
2021/12/02 14:58:26;;;;;;;6.00;1.95;;;;;;;9.75;77.61;98974.28;5568160;32;33628;-58
2021/12/02 15:01:29;;;;;;;6.18;2.10;;;;;;;9.91;78.33;98968.53;5552247;32;34322;-58
2021/12/02 15:04:35;;;;;;;4.00;1.83;;;;;;;9.83;80.74;98965.50;5564601;32;33757;-58
2021/12/02 15:07:56;;;;;;;3.87;1.90;;;;;;;9.88;81.60;98959.22;5567006;32;34343;-58
2021/12/02 15:10:58;;;;;;;2.45;1.90;;;;;;;9.91;77.17;98958.59;5557482;32;34347;-58
2021/12/02 15:14:00;;;;;;;4.00;2.15;;;;;;;9.82;78.23;98952.41;5551022;32;34531;-58
2021/12/02 15:17:04;;;;;;;3.80;1.90;;;;;;;9.85;87.17;98944.56;5554638;32;34196;-57
2021/12/02 15:20:32;;;;;;;4.35;2.10;;;;;;;10.14;83.55;98945.91;5564570;32;33687;-58
2021/12/02 15:23:34;;;;;;;3.90;1.90;;;;;;;10.28;79.32;98940.44;5567426;32;33474;-58
2021/12/02 15:26:37;;;;;;;5.47;2.03;;;;;;;10.26;78.69;98948.78;5555437;32;33710;-57
2021/12/02 15:29:52;;;;;;;4.65;1.95;;;;;;;10.24;76.29;98952.84;5549956;32;33715;-58
2021/12/02 15:32:55;;;;;;;2.45;1.77;;;;;;;10.09;80.29;98944.16;5567388;32;33302;-58
2021/12/02 15:36:01;;;;;;;7.18;2.37;;;;;;;9.94;78.22;98951.84;5567038;32;33671;-57
2021/12/02 15:39:06;;;;;;;2.08;1.85;;;;;;;9.87;80.77;98942.37;5568618;32;33724;-58
2021/12/02 15:42:11;;;;;;;3.70;2.50;;;;;;;9.67;78.94;98937.56;5568202;32;33752;-57
2021/12/02 15:45:15;;;;;;;3.67;1.95;;;;;;;9.78;79.16;98938.88;5568431;32;33823;-58
2021/12/02 15:48:17;;;;;;;4.40;2.50;;;;;;;9.72;79.12;98933.97;5565233;32;33512;-58
2021/12/02 15:51:23;;;;;;;3.55;2.10;;;;;;;9.66;78.90;98938.66;5566823;32;33652;-58
2021/12/02 15:54:27;;;;;;;3.70;2.30;;;;;;;9.61;80.30;98936.91;5567559;32;33772;-58
2021/12/02 15:57:30;;;;;;;4.07;2.42;;;;;;;9.53;80.46;98931.53;5565875;32;33908;-58
2021/12/02 16:00:34;;;;;;;4.90;2.70;;;;;;;9.59;85.81;98936.44;5567520;32;33709;-58
2021/12/02 16:03:40;;;;;;;4.35;2.78;;;;;;;9.55;79.42;98932.00;5564164;32;33786;-58
2021/12/02 16:06:49;;;;;;;5.03;2.53;;;;;;;9.65;82.27;98935.19;5568875;32;33792;-58
2021/12/02 16:09:59;;;;;;;5.40;3.17;;;;;;;9.70;77.09;98931.63;5569155;32;34608;-58
2021/12/02 16:13:02;;;;;;;4.90;3.20;;;;;;;9.76;77.22;98946.41;5567662;32;33590;-58
2021/12/02 16:16:05;;;;;;;6.80;3.25;;;;;;;9.62;78.22;98948.41;5554522;32;33713;-58
2021/12/02 16:19:09;;;;;;;3.90;3.17;;;;;;;9.49;79.50;98958.09;5563138;32;33795;-58
2021/12/02 16:22:11;;;;;;;7.78;3.58;;;;;;;9.41;80.36;98962.31;5565738;32;33689;-58
2021/12/02 16:25:15;;;;;;;4.30;3.30;;;;;;;9.43;80.55;98958.53;5567974;32;33642;-58
2021/12/02 16:28:17;;;;;;;8.00;3.67;;;;;;;9.38;81.51;98968.28;5567595;32;33628;-58
2021/12/02 16:31:20;;;;;;;7.82;3.92;;;;;;;9.40;81.08;98974.13;5568990;32;33772;-58
2021/12/02 16:34:26;;;;;;;8.75;3.80;;;;;;;9.39;81.31;98977.09;5564836;32;33790;-58
2021/12/02 16:37:28;;;;;;;5.40;3.72;;;;;;;9.44;80.89;98986.84;5567101;32;33374;-58
2021/12/02 16:40:31;;;;;;;4.85;3.33;;;;;;;9.40;81.37;98987.50;5567926;32;33618;-58
2021/12/02 16:43:34;;;;;;;7.37;3.55;;;;;;;9.41;80.82;98981.03;5565545;32;33831;-58
2021/12/02 16:46:36;;;;;;;6.10;3.80;;;;;;;9.40;81.31;98987.50;5565158;32;33745;-58
2021/12/02 16:49:39;;;;;;;8.35;4.68;;;;;;;9.01;85.02;98982.84;5557665;32;33799;-58
2021/12/02 16:52:41;;;;;;;8.25;5.43;;;;;;;8.86;84.78;98981.28;5557531;32;33781;-58
2021/12/02 16:55:44;;;;;;;7.43;5.45;;;;;;;8.95;84.07;98976.03;5566979;32;35201;-58
